sensor_id;sensor_type;location;lat;lon;timestamp;pressure;altitude;pressure_sealevel;temperature;humidity
3780;BME280;1905;52.482;9.802;2022-07-17T00:01:34;102161.34;;;15.79;53.23
3780;BME280;1905;52.482;9.802;2022-07-17T00:04:01;102164.16;;;15.74;53.59
3780;BME280;1905;52.482;9.802;2022-07-17T00:06:29;102166.16;;;15.69;53.23
3780;BME280;1905;52.482;9.802;2022-07-17T00:08:58;102160.16;;;15.64;53.52
3780;BME280;1905;52.482;9.802;2022-07-17T00:11:25;102164.00;;;15.57;53.65
3780;BME280;1905;52.482;9.802;2022-07-17T00:13:53;102160.53;;;15.55;53.83
3780;BME280;1905;52.482;9.802;2022-07-17T00:16:21;102166.91;;;15.51;53.96
3780;BME280;1905;52.482;9.802;2022-07-17T00:18:49;102172.28;;;15.49;53.64
3780;BME280;1905;52.482;9.802;2022-07-17T00:21:17;102166.25;;;15.46;53.90
3780;BME280;1905;52.482;9.802;2022-07-17T00:23:44;102162.81;;;15.41;54.23
3780;BME280;1905;52.482;9.802;2022-07-17T00:26:13;102164.78;;;15.37;53.69
3780;BME280;1905;52.482;9.802;2022-07-17T00:28:41;102163.22;;;15.32;53.92
3780;BME280;1905;52.482;9.802;2022-07-17T00:31:08;102158.00;;;15.29;53.75
3780;BME280;1905;52.482;9.802;2022-07-17T00:33:36;102161.69;;;15.25;53.79
3780;BME280;1905;52.482;9.802;2022-07-17T00:36:04;102161.84;;;15.22;53.99
3780;BME280;1905;52.482;9.802;2022-07-17T00:38:32;102167.28;;;15.19;54.26
3780;BME280;1905;52.482;9.802;2022-07-17T00:41:00;102168.31;;;15.15;54.13
3780;BME280;1905;52.482;9.802;2022-07-17T00:43:29;102164.06;;;15.11;53.84
3780;BME280;1905;52.482;9.802;2022-07-17T00:45:57;102163.34;;;15.06;54.33
3780;BME280;1905;52.482;9.802;2022-07-17T00:48:26;102168.81;;;15.03;54.31
3780;BME280;1905;52.482;9.802;2022-07-17T00:50:54;102173.41;;;14.98;54.11
3780;BME280;1905;52.482;9.802;2022-07-17T00:53:22;102171.00;;;14.92;54.72
3780;BME280;1905;52.482;9.802;2022-07-17T00:55:50;102164.00;;;14.89;54.49
3780;BME280;1905;52.482;9.802;2022-07-17T00:58:19;102161.47;;;14.86;54.37
3780;BME280;1905;52.482;9.802;2022-07-17T01:00:50;102158.03;;;14.82;54.29
3780;BME280;1905;52.482;9.802;2022-07-17T01:03:20;102160.78;;;14.81;54.30
3780;BME280;1905;52.482;9.802;2022-07-17T01:05:48;102157.38;;;14.76;54.39
3780;BME280;1905;52.482;9.802;2022-07-17T01:08:16;102159.44;;;14.69;54.42
3780;BME280;1905;52.482;9.802;2022-07-17T01:10:44;102167.50;;;14.66;54.78
3780;BME280;1905;52.482;9.802;2022-07-17T01:13:12;102161.41;;;14.64;54.43
3780;BME280;1905;52.482;9.802;2022-07-17T01:15:40;102163.34;;;14.59;54.94
3780;BME280;1905;52.482;9.802;2022-07-17T01:18:12;102166.06;;;14.58;55.04
3780;BME280;1905;52.482;9.802;2022-07-17T01:20:42;102162.63;;;14.54;54.66
3780;BME280;1905;52.482;9.802;2022-07-17T01:23:12;102170.72;;;14.51;54.70
3780;BME280;1905;52.482;9.802;2022-07-17T01:25:42;102164.69;;;14.46;55.06
3780;BME280;1905;52.482;9.802;2022-07-17T01:28:09;102163.91;;;14.44;54.64
3780;BME280;1905;52.482;9.802;2022-07-17T01:30:45;102170.19;;;14.42;54.96
3780;BME280;1905;52.482;9.802;2022-07-17T01:33:13;102173.81;;;14.39;55.05
3780;BME280;1905;52.482;9.802;2022-07-17T01:35:40;102166.03;;;14.35;55.30
3780;BME280;1905;52.482;9.802;2022-07-17T01:38:08;102165.22;;;14.31;55.31
3780;BME280;1905;52.482;9.802;2022-07-17T01:40:37;102167.06;;;14.29;54.93
3780;BME280;1905;52.482;9.802;2022-07-17T01:43:05;102161.91;;;14.24;55.14
3780;BME280;1905;52.482;9.802;2022-07-17T01:45:32;102162.06;;;14.20;54.82
3780;BME280;1905;52.482;9.802;2022-07-17T01:48:00;102163.94;;;14.18;55.33
3780;BME280;1905;52.482;9.802;2022-07-17T01:50:28;102168.47;;;14.14;55.06
3780;BME280;1905;52.482;9.802;2022-07-17T01:52:56;102164.13;;;14.12;55.44
3780;BME280;1905;52.482;9.802;2022-07-17T01:55:23;102159.78;;;14.09;55.46
3780;BME280;1905;52.482;9.802;2022-07-17T01:57:52;102163.47;;;14.05;55.57
3780;BME280;1905;52.482;9.802;2022-07-17T02:00:20;102166.19;;;14.04;55.06
3780;BME280;1905;52.482;9.802;2022-07-17T02:02:50;102171.59;;;14.01;55.26
3780;BME280;1905;52.482;9.802;2022-07-17T02:05:18;102167.44;;;13.94;55.57
3780;BME280;1905;52.482;9.802;2022-07-17T02:07:45;102168.34;;;13.93;55.34
3780;BME280;1905;52.482;9.802;2022-07-17T02:10:14;102173.75;;;13.90;55.50
3780;BME280;1905;52.482;9.802;2022-07-17T02:12:43;102171.19;;;13.87;55.44
3780;BME280;1905;52.482;9.802;2022-07-17T02:15:13;102182.84;;;13.83;55.51
3780;BME280;1905;52.482;9.802;2022-07-17T02:17:41;102180.28;;;13.80;55.64
3780;BME280;1905;52.482;9.802;2022-07-17T02:20:09;102177.72;;;13.77;55.62
3780;BME280;1905;52.482;9.802;2022-07-17T02:22:37;102183.13;;;13.73;55.48
3780;BME280;1905;52.482;9.802;2022-07-17T02:25:06;102182.34;;;13.70;55.51
3780;BME280;1905;52.482;9.802;2022-07-17T02:27:34;102175.38;;;13.67;55.52
3780;BME280;1905;52.482;9.802;2022-07-17T02:30:04;102178.13;;;13.64;55.61
3780;BME280;1905;52.482;9.802;2022-07-17T02:32:34;102174.75;;;13.59;55.72
3780;BME280;1905;52.482;9.802;2022-07-17T02:35:02;102173.03;;;13.58;55.57
3780;BME280;1905;52.482;9.802;2022-07-17T02:37:29;102171.38;;;13.54;55.79
3780;BME280;1905;52.482;9.802;2022-07-17T02:39:57;102169.75;;;13.50;56.00
3780;BME280;1905;52.482;9.802;2022-07-17T02:42:26;102164.53;;;13.47;55.74
3780;BME280;1905;52.482;9.802;2022-07-17T02:44:55;102166.34;;;13.45;55.80
3780;BME280;1905;52.482;9.802;2022-07-17T02:47:23;102176.16;;;13.43;55.89
3780;BME280;1905;52.482;9.802;2022-07-17T02:49:52;102175.41;;;13.40;56.00
3780;BME280;1905;52.482;9.802;2022-07-17T02:52:20;102189.72;;;13.34;55.97
3780;BME280;1905;52.482;9.802;2022-07-17T02:54:47;102187.97;;;13.33;56.37
3780;BME280;1905;52.482;9.802;2022-07-17T02:57:16;102188.06;;;13.30;56.01
3780;BME280;1905;52.482;9.802;2022-07-17T02:59:45;102194.34;;;13.28;56.45
3780;BME280;1905;52.482;9.802;2022-07-17T03:02:13;102196.19;;;13.26;56.33
3780;BME280;1905;52.482;9.802;2022-07-17T03:04:41;102198.91;;;13.23;56.08
3780;BME280;1905;52.482;9.802;2022-07-17T03:07:10;102187.53;;;13.19;56.27
3780;BME280;1905;52.482;9.802;2022-07-17T03:09:37;102203.59;;;13.15;56.20
3780;BME280;1905;52.482;9.802;2022-07-17T03:12:06;102200.97;;;13.13;56.45
3780;BME280;1905;52.482;9.802;2022-07-17T03:14:33;102201.03;;;13.11;56.46
3780;BME280;1905;52.482;9.802;2022-07-17T03:17:01;102199.34;;;13.09;56.47
3780;BME280;1905;52.482;9.802;2022-07-17T03:19:29;102209.13;;;13.07;56.41
3780;BME280;1905;52.482;9.802;2022-07-17T03:21:56;102203.88;;;13.04;56.74
3780;BME280;1905;52.482;9.802;2022-07-17T03:24:25;102204.84;;;13.00;56.72
3780;BME280;1905;52.482;9.802;2022-07-17T03:26:53;102203.16;;;12.97;56.50
3780;BME280;1905;52.482;9.802;2022-07-17T03:29:21;102205.97;;;12.93;56.49
3780;BME280;1905;52.482;9.802;2022-07-17T03:31:49;102212.16;;;12.92;56.49
3780;BME280;1905;52.482;9.802;2022-07-17T03:34:16;102209.53;;;12.92;56.44
3780;BME280;1905;52.482;9.802;2022-07-17T03:36:44;102214.00;;;12.90;56.44
3780;BME280;1905;52.482;9.802;2022-07-17T03:39:13;102213.28;;;12.85;56.51
3780;BME280;1905;52.482;9.802;2022-07-17T03:41:42;102211.53;;;12.84;56.63
3780;BME280;1905;52.482;9.802;2022-07-17T03:44:09;102226.63;;;12.82;56.55
3780;BME280;1905;52.482;9.802;2022-07-17T03:46:37;102224.94;;;12.78;56.62
3780;BME280;1905;52.482;9.802;2022-07-17T03:49:05;102228.53;;;12.77;56.58
3780;BME280;1905;52.482;9.802;2022-07-17T03:51:33;102225.03;;;12.75;56.94
3780;BME280;1905;52.482;9.802;2022-07-17T03:54:01;102233.91;;;12.74;56.90
3780;BME280;1905;52.482;9.802;2022-07-17T03:56:29;102228.63;;;12.72;56.54
3780;BME280;1905;52.482;9.802;2022-07-17T03:58:58;102232.25;;;12.70;56.72
3780;BME280;1905;52.482;9.802;2022-07-17T04:01:26;102224.34;;;12.68;56.80
3780;BME280;1905;52.482;9.802;2022-07-17T04:03:53;102227.91;;;12.67;56.76
3780;BME280;1905;52.482;9.802;2022-07-17T04:06:21;102228.81;;;12.66;56.76
3780;BME280;1905;52.482;9.802;2022-07-17T04:08:49;102234.16;;;12.65;56.82
3780;BME280;1905;52.482;9.802;2022-07-17T04:11:16;102227.13;;;12.64;56.96
3780;BME280;1905;52.482;9.802;2022-07-17T04:13:46;102225.38;;;12.63;57.03
3780;BME280;1905;52.482;9.802;2022-07-17T04:16:15;102217.44;;;12.63;56.74
3780;BME280;1905;52.482;9.802;2022-07-17T04:18:43;102213.97;;;12.61;56.68
3780;BME280;1905;52.482;9.802;2022-07-17T04:21:11;102209.47;;;12.63;56.81
3780;BME280;1905;52.482;9.802;2022-07-17T04:23:39;102209.56;;;12.60;56.74
3780;BME280;1905;52.482;9.802;2022-07-17T04:26:07;102203.38;;;12.59;57.04
3780;BME280;1905;52.482;9.802;2022-07-17T04:28:37;102198.06;;;12.61;56.92
3780;BME280;1905;52.482;9.802;2022-07-17T04:31:05;102198.97;;;12.60;56.76
3780;BME280;1905;52.482;9.802;2022-07-17T04:33:34;102204.25;;;12.60;56.63
3780;BME280;1905;52.482;9.802;2022-07-17T04:36:02;102217.44;;;12.63;56.68
3780;BME280;1905;52.482;9.802;2022-07-17T04:38:29;102218.25;;;12.65;56.54
3780;BME280;1905;52.482;9.802;2022-07-17T04:40:57;102220.91;;;12.65;56.59
3780;BME280;1905;52.482;9.802;2022-07-17T04:43:24;102231.41;;;12.68;56.58
3780;BME280;1905;52.482;9.802;2022-07-17T04:45:52;102241.13;;;12.69;56.54
3780;BME280;1905;52.482;9.802;2022-07-17T04:48:20;102244.59;;;12.71;56.53
3780;BME280;1905;52.482;9.802;2022-07-17T04:50:49;102249.81;;;12.74;56.08
3780;BME280;1905;52.482;9.802;2022-07-17T04:53:16;102251.47;;;12.78;56.39
3780;BME280;1905;52.482;9.802;2022-07-17T04:55:50;102250.63;;;12.77;56.23
3780;BME280;1905;52.482;9.802;2022-07-17T04:58:18;102248.72;;;12.81;56.21
3780;BME280;1905;52.482;9.802;2022-07-17T05:00:46;102245.16;;;12.82;56.04
3780;BME280;1905;52.482;9.802;2022-07-17T05:03:13;102251.28;;;12.84;56.28
3780;BME280;1905;52.482;9.802;2022-07-17T05:05:41;102251.28;;;12.84;55.74
3780;BME280;1905;52.482;9.802;2022-07-17T05:08:10;102250.25;;;12.89;56.00
3780;BME280;1905;52.482;9.802;2022-07-17T05:10:37;102245.03;;;12.86;56.11
3780;BME280;1905;52.482;9.802;2022-07-17T05:13:05;102242.28;;;12.91;55.97
3780;BME280;1905;52.482;9.802;2022-07-17T05:15:33;102226.25;;;12.94;56.01
3780;BME280;1905;52.482;9.802;2022-07-17T05:18:06;102233.16;;;12.99;55.89
3780;BME280;1905;52.482;9.802;2022-07-17T05:20:34;102231.47;;;12.97;55.78
3780;BME280;1905;52.482;9.802;2022-07-17T05:23:02;102239.25;;;13.03;55.58
3780;BME280;1905;52.482;9.802;2022-07-17T05:25:32;102231.22;;;13.06;55.80
3780;BME280;1905;52.482;9.802;2022-07-17T05:27:59;102226.81;;;13.05;55.89
3780;BME280;1905;52.482;9.802;2022-07-17T05:30:28;102240.91;;;13.08;56.11
3780;BME280;1905;52.482;9.802;2022-07-17T05:32:56;102243.38;;;13.15;55.80
3780;BME280;1905;52.482;9.802;2022-07-17T05:35:23;102244.09;;;13.20;55.86
3780;BME280;1905;52.482;9.802;2022-07-17T05:37:51;102239.59;;;13.23;55.55
3780;BME280;1905;52.482;9.802;2022-07-17T05:40:19;102245.72;;;13.25;55.59
3780;BME280;1905;52.482;9.802;2022-07-17T05:42:47;102242.16;;;13.26;55.45
3780;BME280;1905;52.482;9.802;2022-07-17T05:45:15;102239.28;;;13.34;55.71
3780;BME280;1905;52.482;9.802;2022-07-17T05:47:42;102242.78;;;13.34;55.54
3780;BME280;1905;52.482;9.802;2022-07-17T05:50:10;102244.34;;;13.41;55.96
3780;BME280;1905;52.482;9.802;2022-07-17T05:52:38;102243.31;;;13.45;55.77
3780;BME280;1905;52.482;9.802;2022-07-17T05:55:06;102239.66;;;13.49;55.59
3780;BME280;1905;52.482;9.802;2022-07-17T05:57:34;102236.91;;;13.52;56.13
3780;BME280;1905;52.482;9.802;2022-07-17T06:00:03;102240.19;;;13.60;58.28
3780;BME280;1905;52.482;9.802;2022-07-17T06:02:37;102255.94;;;13.66;57.38
3780;BME280;1905;52.482;9.802;2022-07-17T06:05:05;102260.13;;;13.73;57.28
3780;BME280;1905;52.482;9.802;2022-07-17T06:07:33;102250.22;;;13.79;57.37
3780;BME280;1905;52.482;9.802;2022-07-17T06:10:01;102253.50;;;13.87;58.87
3780;BME280;1905;52.482;9.802;2022-07-17T06:12:28;102262.94;;;13.97;57.75
3780;BME280;1905;52.482;9.802;2022-07-17T06:14:56;102261.75;;;14.05;58.99
3780;BME280;1905;52.482;9.802;2022-07-17T06:17:26;102262.44;;;14.12;58.36
3780;BME280;1905;52.482;9.802;2022-07-17T06:19:54;102255.06;;;14.20;57.60
3780;BME280;1905;52.482;9.802;2022-07-17T06:22:22;102241.59;;;14.26;58.09
3780;BME280;1905;52.482;9.802;2022-07-17T06:24:50;102248.47;;;14.33;56.98
3780;BME280;1905;52.482;9.802;2022-07-17T06:27:18;102254.44;;;14.40;56.71
3780;BME280;1905;52.482;9.802;2022-07-17T06:29:45;102246.09;;;14.50;57.52
3780;BME280;1905;52.482;9.802;2022-07-17T06:32:22;102242.19;;;14.60;57.28
3780;BME280;1905;52.482;9.802;2022-07-17T06:34:50;102243.47;;;14.73;57.75
3780;BME280;1905;52.482;9.802;2022-07-17T06:37:18;102244.94;;;14.82;58.25
3780;BME280;1905;52.482;9.802;2022-07-17T06:39:46;102249.88;;;14.93;57.56
3780;BME280;1905;52.482;9.802;2022-07-17T06:42:14;102247.88;;;14.99;56.47
3780;BME280;1905;52.482;9.802;2022-07-17T06:44:41;102263.44;;;15.10;57.05
3780;BME280;1905;52.482;9.802;2022-07-17T06:47:09;102267.56;;;15.18;56.68
3780;BME280;1905;52.482;9.802;2022-07-17T06:49:37;102253.84;;;15.29;56.72
3780;BME280;1905;52.482;9.802;2022-07-17T06:52:06;102260.31;;;15.45;57.34
3780;BME280;1905;52.482;9.802;2022-07-17T06:54:33;102249.47;;;15.51;57.22
3780;BME280;1905;52.482;9.802;2022-07-17T06:57:01;102250.59;;;15.67;58.01
3780;BME280;1905;52.482;9.802;2022-07-17T06:59:29;102242.22;;;15.76;56.54
3780;BME280;1905;52.482;9.802;2022-07-17T07:01:56;102254.19;;;15.88;56.98
3780;BME280;1905;52.482;9.802;2022-07-17T07:04:24;102247.56;;;15.98;57.12
3780;BME280;1905;52.482;9.802;2022-07-17T07:06:51;102251.59;;;16.08;56.44
3780;BME280;1905;52.482;9.802;2022-07-17T07:09:21;102253.69;;;16.22;56.61
3780;BME280;1905;52.482;9.802;2022-07-17T07:11:48;102259.34;;;16.34;55.41
3780;BME280;1905;52.482;9.802;2022-07-17T07:14:16;102261.44;;;16.48;55.80
3780;BME280;1905;52.482;9.802;2022-07-17T07:16:43;102257.63;;;16.55;55.97
3780;BME280;1905;52.482;9.802;2022-07-17T07:19:11;102257.22;;;16.64;56.63
3780;BME280;1905;52.482;9.802;2022-07-17T07:21:40;102257.47;;;16.78;55.08
3780;BME280;1905;52.482;9.802;2022-07-17T07:24:08;102254.28;;;16.90;53.93
3780;BME280;1905;52.482;9.802;2022-07-17T07:26:37;102254.44;;;17.06;54.51
3780;BME280;1905;52.482;9.802;2022-07-17T07:29:04;102268.19;;;17.17;54.57
3780;BME280;1905;52.482;9.802;2022-07-17T07:31:32;102261.56;;;17.25;53.23
3780;BME280;1905;52.482;9.802;2022-07-17T07:34:00;102260.47;;;17.30;55.10
3780;BME280;1905;52.482;9.802;2022-07-17T07:36:28;102260.53;;;17.47;53.28
3780;BME280;1905;52.482;9.802;2022-07-17T07:38:56;102256.78;;;17.51;54.31
3780;BME280;1905;52.482;9.802;2022-07-17T07:41:24;102262.47;;;17.63;52.91
3780;BME280;1905;52.482;9.802;2022-07-17T07:43:53;102259.31;;;17.72;54.24
3780;BME280;1905;52.482;9.802;2022-07-17T07:46:21;102257.88;;;17.84;53.58
3780;BME280;1905;52.482;9.802;2022-07-17T07:48:49;102254.75;;;17.93;53.05
3780;BME280;1905;52.482;9.802;2022-07-17T07:51:17;102250.84;;;18.00;52.58
3780;BME280;1905;52.482;9.802;2022-07-17T07:54:05;102251.94;;;18.13;52.68
3780;BME280;1905;52.482;9.802;2022-07-17T07:56:32;102257.25;;;18.32;53.20
3780;BME280;1905;52.482;9.802;2022-07-17T07:59:02;102250.75;;;18.55;52.72
3780;BME280;1905;52.482;9.802;2022-07-17T08:01:30;102260.03;;;18.65;52.19
3780;BME280;1905;52.482;9.802;2022-07-17T08:03:58;102264.75;;;18.77;52.37
3780;BME280;1905;52.482;9.802;2022-07-17T08:06:26;102266.50;;;18.78;52.72
3780;BME280;1905;52.482;9.802;2022-07-17T08:08:53;102270.00;;;18.95;51.90
3780;BME280;1905;52.482;9.802;2022-07-17T08:11:21;102265.59;;;19.27;51.14
3780;BME280;1905;52.482;9.802;2022-07-17T08:13:49;102267.00;;;19.34;51.12
3780;BME280;1905;52.482;9.802;2022-07-17T08:16:17;102268.78;;;19.51;50.58
3780;BME280;1905;52.482;9.802;2022-07-17T08:18:46;102264.97;;;19.71;51.14
3780;BME280;1905;52.482;9.802;2022-07-17T08:21:14;102273.63;;;19.91;50.36
3780;BME280;1905;52.482;9.802;2022-07-17T08:23:42;102281.06;;;20.02;49.58
3780;BME280;1905;52.482;9.802;2022-07-17T08:26:09;102279.84;;;20.07;50.03
3780;BME280;1905;52.482;9.802;2022-07-17T08:28:37;102286.13;;;20.22;49.35
3780;BME280;1905;52.482;9.802;2022-07-17T08:31:05;102290.53;;;20.23;50.03
3780;BME280;1905;52.482;9.802;2022-07-17T08:33:34;102279.31;;;20.32;50.22
3780;BME280;1905;52.482;9.802;2022-07-17T08:36:02;102277.22;;;20.06;49.87
3780;BME280;1905;52.482;9.802;2022-07-17T08:38:29;102274.00;;;20.46;50.89
3780;BME280;1905;52.482;9.802;2022-07-17T08:40:57;102280.66;;;20.69;50.95
3780;BME280;1905;52.482;9.802;2022-07-17T08:43:25;102278.00;;;20.83;49.54
3780;BME280;1905;52.482;9.802;2022-07-17T08:45:54;102280.81;;;20.96;49.25
3780;BME280;1905;52.482;9.802;2022-07-17T08:48:24;102280.25;;;21.05;49.61
3780;BME280;1905;52.482;9.802;2022-07-17T08:50:59;102272.50;;;21.28;49.68
3780;BME280;1905;52.482;9.802;2022-07-17T08:53:26;102277.00;;;21.56;49.48
3780;BME280;1905;52.482;9.802;2022-07-17T08:55:54;102281.22;;;21.60;47.27
3780;BME280;1905;52.482;9.802;2022-07-17T08:58:23;102281.41;;;21.71;48.83
3780;BME280;1905;52.482;9.802;2022-07-17T09:00:51;102281.47;;;21.98;49.36
3780;BME280;1905;52.482;9.802;2022-07-17T09:03:19;102273.22;;;22.14;48.80
3780;BME280;1905;52.482;9.802;2022-07-17T09:05:49;102282.00;;;22.30;49.39
3780;BME280;1905;52.482;9.802;2022-07-17T09:08:20;102281.47;;;22.25;46.34
3780;BME280;1905;52.482;9.802;2022-07-17T09:10:50;102276.94;;;22.25;46.43
3780;BME280;1905;52.482;9.802;2022-07-17T09:13:20;102278.06;;;22.48;47.96
3780;BME280;1905;52.482;9.802;2022-07-17T09:15:50;102269.91;;;22.62;47.68
3780;BME280;1905;52.482;9.802;2022-07-17T09:18:18;102272.22;;;22.68;47.31
3780;BME280;1905;52.482;9.802;2022-07-17T09:20:48;102276.22;;;22.75;46.38
3780;BME280;1905;52.482;9.802;2022-07-17T09:23:19;102275.25;;;22.76;46.81
3780;BME280;1905;52.482;9.802;2022-07-17T09:25:49;102278.59;;;22.92;46.91
3780;BME280;1905;52.482;9.802;2022-07-17T09:28:18;102271.72;;;23.01;46.56
3780;BME280;1905;52.482;9.802;2022-07-17T09:30:49;102275.06;;;23.04;46.29
3780;BME280;1905;52.482;9.802;2022-07-17T09:33:19;102283.13;;;23.17;46.21
3780;BME280;1905;52.482;9.802;2022-07-17T09:35:49;102285.50;;;23.22;46.47
3780;BME280;1905;52.482;9.802;2022-07-17T09:38:29;102274.72;;;23.22;45.86
3780;BME280;1905;52.482;9.802;2022-07-17T09:41:03;102288.41;;;23.19;45.80
3780;BME280;1905;52.482;9.802;2022-07-17T09:43:44;102281.63;;;23.26;45.44
3780;BME280;1905;52.482;9.802;2022-07-17T09:46:18;102270.63;;;23.29;45.51
3780;BME280;1905;52.482;9.802;2022-07-17T09:48:48;102271.16;;;23.34;46.09
3780;BME280;1905;52.482;9.802;2022-07-17T09:51:18;102272.56;;;23.39;46.13
3780;BME280;1905;52.482;9.802;2022-07-17T09:53:50;102277.72;;;23.30;44.95
3780;BME280;1905;52.482;9.802;2022-07-17T09:56:19;102273.84;;;23.21;44.98
3780;BME280;1905;52.482;9.802;2022-07-17T09:58:49;102274.72;;;23.22;44.33
3780;BME280;1905;52.482;9.802;2022-07-17T10:01:17;102266.94;;;23.30;46.34
3780;BME280;1905;52.482;9.802;2022-07-17T10:03:49;102262.53;;;23.29;45.30
3780;BME280;1905;52.482;9.802;2022-07-17T10:06:20;102273.00;;;23.21;45.52
3780;BME280;1905;52.482;9.802;2022-07-17T10:08:53;102268.69;;;23.05;44.90
3780;BME280;1905;52.482;9.802;2022-07-17T10:11:23;102267.59;;;22.95;44.86
3780;BME280;1905;52.482;9.802;2022-07-17T10:13:52;102263.72;;;22.99;45.16
3780;BME280;1905;52.482;9.802;2022-07-17T10:16:24;102271.25;;;22.94;44.63
3780;BME280;1905;52.482;9.802;2022-07-17T10:18:53;102277.09;;;23.01;45.67
3780;BME280;1905;52.482;9.802;2022-07-17T10:21:24;102273.84;;;22.83;44.41
3780;BME280;1905;52.482;9.802;2022-07-17T10:24:08;102272.34;;;22.79;45.78
3780;BME280;1905;52.482;9.802;2022-07-17T10:26:41;102264.81;;;22.84;45.99
3780;BME280;1905;52.482;9.802;2022-07-17T10:29:29;102271.34;;;22.80;46.00
3780;BME280;1905;52.482;9.802;2022-07-17T10:31:59;102270.97;;;22.60;45.46
3780;BME280;1905;52.482;9.802;2022-07-17T10:34:39;102261.91;;;22.48;46.01
3780;BME280;1905;52.482;9.802;2022-07-17T10:37:14;102265.03;;;22.42;45.87
3780;BME280;1905;52.482;9.802;2022-07-17T10:39:56;102268.34;;;22.33;45.28
3780;BME280;1905;52.482;9.802;2022-07-17T10:42:41;102269.50;;;22.29;46.18
3780;BME280;1905;52.482;9.802;2022-07-17T10:45:11;102259.50;;;22.31;46.35
3780;BME280;1905;52.482;9.802;2022-07-17T10:47:44;102263.56;;;22.24;45.77
3780;BME280;1905;52.482;9.802;2022-07-17T10:50:12;102257.47;;;22.08;46.06
3780;BME280;1905;52.482;9.802;2022-07-17T10:52:41;102263.94;;;22.05;46.30
3780;BME280;1905;52.482;9.802;2022-07-17T10:55:19;102255.78;;;22.07;46.38
3780;BME280;1905;52.482;9.802;2022-07-17T10:57:50;102259.38;;;21.93;45.96
3780;BME280;1905;52.482;9.802;2022-07-17T11:00:18;102252.06;;;21.95;46.67
3780;BME280;1905;52.482;9.802;2022-07-17T11:02:46;102246.75;;;21.93;45.83
3780;BME280;1905;52.482;9.802;2022-07-17T11:05:14;102243.13;;;21.80;45.86
3780;BME280;1905;52.482;9.802;2022-07-17T11:07:54;102250.25;;;21.81;46.68
3780;BME280;1905;52.482;9.802;2022-07-17T11:10:26;102246.81;;;21.79;46.75
3780;BME280;1905;52.482;9.802;2022-07-17T11:13:06;102240.63;;;21.77;46.16
3780;BME280;1905;52.482;9.802;2022-07-17T11:15:38;102241.06;;;21.71;46.55
3780;BME280;1905;52.482;9.802;2022-07-17T11:18:10;102249.13;;;21.71;46.69
3780;BME280;1905;52.482;9.802;2022-07-17T11:20:46;102251.22;;;21.66;47.13
3780;BME280;1905;52.482;9.802;2022-07-17T11:23:15;102240.28;;;21.69;45.62
3780;BME280;1905;52.482;9.802;2022-07-17T11:25:56;102230.69;;;21.65;46.61
3780;BME280;1905;52.482;9.802;2022-07-17T11:28:29;102241.66;;;21.62;46.52
3780;BME280;1905;52.482;9.802;2022-07-17T11:30:56;102220.13;;;21.62;46.84
3780;BME280;1905;52.482;9.802;2022-07-17T11:33:24;102228.09;;;21.64;46.11
3780;BME280;1905;52.482;9.802;2022-07-17T11:35:52;102224.75;;;21.60;46.85
3780;BME280;1905;52.482;9.802;2022-07-17T11:38:26;102229.34;;;21.58;45.77
3780;BME280;1905;52.482;9.802;2022-07-17T11:40:56;102227.84;;;21.54;45.75
3780;BME280;1905;52.482;9.802;2022-07-17T11:43:27;102238.28;;;21.59;45.15
3780;BME280;1905;52.482;9.802;2022-07-17T11:45:55;102226.66;;;21.58;45.24
3780;BME280;1905;52.482;9.802;2022-07-17T11:48:22;102233.97;;;21.56;46.15
3780;BME280;1905;52.482;9.802;2022-07-17T11:50:55;102230.13;;;21.60;46.67
3780;BME280;1905;52.482;9.802;2022-07-17T11:53:34;102215.91;;;21.58;45.05
3780;BME280;1905;52.482;9.802;2022-07-17T11:56:04;102223.22;;;21.56;45.85
3780;BME280;1905;52.482;9.802;2022-07-17T11:58:43;102223.03;;;21.59;45.61
3780;BME280;1905;52.482;9.802;2022-07-17T12:01:12;102225.34;;;21.51;45.32
3780;BME280;1905;52.482;9.802;2022-07-17T12:03:40;102221.03;;;21.49;45.29
3780;BME280;1905;52.482;9.802;2022-07-17T12:06:08;102203.84;;;21.51;46.05
3780;BME280;1905;52.482;9.802;2022-07-17T12:08:36;102215.16;;;21.56;45.62
3780;BME280;1905;52.482;9.802;2022-07-17T12:11:07;102207.75;;;21.60;46.05
3780;BME280;1905;52.482;9.802;2022-07-17T12:13:42;102208.19;;;21.66;45.23
3780;BME280;1905;52.482;9.802;2022-07-17T12:16:21;102202.19;;;21.63;45.59
3780;BME280;1905;52.482;9.802;2022-07-17T12:19:06;102207.56;;;21.63;45.75
3780;BME280;1905;52.482;9.802;2022-07-17T12:21:47;102195.19;;;21.60;46.53
3780;BME280;1905;52.482;9.802;2022-07-17T12:24:19;102195.09;;;21.74;45.31
3780;BME280;1905;52.482;9.802;2022-07-17T12:26:49;102191.47;;;21.75;46.23
3780;BME280;1905;52.482;9.802;2022-07-17T12:29:16;102185.88;;;21.78;46.00
3780;BME280;1905;52.482;9.802;2022-07-17T12:31:44;102183.94;;;21.80;45.55
3780;BME280;1905;52.482;9.802;2022-07-17T12:34:12;102188.25;;;21.83;45.26
3780;BME280;1905;52.482;9.802;2022-07-17T12:36:40;102185.31;;;21.87;45.11
3780;BME280;1905;52.482;9.802;2022-07-17T12:39:08;102178.19;;;21.86;46.22
3780;BME280;1905;52.482;9.802;2022-07-17T12:41:36;102174.03;;;21.95;46.20
3780;BME280;1905;52.482;9.802;2022-07-17T12:44:05;102174.16;;;22.06;45.20
3780;BME280;1905;52.482;9.802;2022-07-17T12:46:33;102183.66;;;22.12;42.72
3780;BME280;1905;52.482;9.802;2022-07-17T12:49:01;102181.50;;;22.17;43.82
3780;BME280;1905;52.482;9.802;2022-07-17T12:51:28;102184.53;;;22.12;44.19
3780;BME280;1905;52.482;9.802;2022-07-17T12:53:57;102171.63;;;22.17;45.60
3780;BME280;1905;52.482;9.802;2022-07-17T12:56:24;102172.25;;;22.21;45.48
3780;BME280;1905;52.482;9.802;2022-07-17T12:58:54;102172.28;;;22.33;45.37
3780;BME280;1905;52.482;9.802;2022-07-17T13:01:31;102166.69;;;22.36;44.92
3780;BME280;1905;52.482;9.802;2022-07-17T13:03:59;102169.50;;;22.47;44.94
3780;BME280;1905;52.482;9.802;2022-07-17T13:06:27;102169.72;;;22.57;42.03
3780;BME280;1905;52.482;9.802;2022-07-17T13:08:55;102161.50;;;22.59;43.97
3780;BME280;1905;52.482;9.802;2022-07-17T13:11:22;102159.28;;;22.65;43.47
3780;BME280;1905;52.482;9.802;2022-07-17T13:13:50;102158.66;;;22.74;44.29
3780;BME280;1905;52.482;9.802;2022-07-17T13:16:19;102153.56;;;22.82;43.91
3780;BME280;1905;52.482;9.802;2022-07-17T13:18:48;102147.28;;;22.94;43.15
3780;BME280;1905;52.482;9.802;2022-07-17T13:21:16;102147.28;;;23.07;43.59